createdAt,value
2016-05-28T00:00:03.251Z,0
2016-05-28T00:01:02.973Z,0
2016-05-28T00:02:03.304Z,0
2016-05-28T00:03:03.322Z,0
2016-05-28T00:04:03.340Z,0
2016-05-28T00:05:03.812Z,0
2016-05-28T00:06:03.408Z,0
2016-05-28T00:07:03.410Z,0
2016-05-28T00:08:03.446Z,0
2016-05-28T00:09:03.479Z,0
2016-05-28T00:10:03.497Z,0
2016-05-28T00:11:03.516Z,0
2016-05-28T00:12:03.549Z,0
2016-05-28T00:13:03.584Z,0
2016-05-28T00:14:03.430Z,0
2016-05-28T00:15:03.620Z,0
2016-05-28T00:16:03.639Z,0
2016-05-28T00:17:03.672Z,0
2016-05-28T00:18:03.690Z,0
2016-05-28T00:19:03.709Z,0
2016-05-28T00:20:03.712Z,0
2016-05-28T00:21:03.761Z,0
2016-05-28T00:22:03.780Z,0
2016-05-28T00:23:03.814Z,0
2016-05-28T00:24:03.832Z,0
2016-05-28T00:25:03.850Z,0
2016-05-28T00:26:03.868Z,0
2016-05-28T00:27:03.903Z,0
2016-05-28T00:28:03.764Z,0
2016-05-28T00:29:03.955Z,0
2016-05-28T00:30:03.989Z,0
2016-05-28T00:31:03.850Z,0
2016-05-28T00:32:04.025Z,0
2016-05-28T00:33:03.903Z,0
2016-05-28T00:34:03.921Z,0
2016-05-28T00:35:04.565Z,0
2016-05-28T00:36:04.130Z,0
2016-05-28T00:37:04.149Z,0
2016-05-28T00:38:04.166Z,0
2016-05-28T00:39:04.029Z,0
2016-05-28T00:40:04.062Z,0
2016-05-28T00:41:03.940Z,0
2016-05-28T00:42:04.099Z,0
2016-05-28T00:43:04.305Z,0
2016-05-28T00:44:04.151Z,0
2016-05-28T00:45:04.185Z,0
2016-05-28T00:46:04.360Z,0
2016-05-28T00:47:04.379Z,0
2016-05-28T00:48:04.412Z,0
2016-05-28T00:49:04.431Z,0
2016-05-28T00:50:04.651Z,0
2016-05-28T00:51:04.483Z,0
2016-05-28T00:52:04.532Z,0
2016-05-28T00:53:04.550Z,0
2016-05-28T00:54:04.553Z,0
2016-05-28T00:55:04.572Z,0
2016-05-28T00:56:04.589Z,0
2016-05-28T00:57:04.484Z,0
2016-05-28T00:58:04.642Z,0
2016-05-28T00:59:04.535Z,0
2016-05-28T01:00:04.539Z,0
2016-05-28T01:01:04.556Z,0
2016-05-28T01:02:04.746Z,0
2016-05-28T01:03:04.765Z,0
2016-05-28T01:04:04.486Z,0
2016-05-28T01:05:04.911Z,0
2016-05-28T01:06:04.835Z,0
2016-05-28T01:07:04.869Z,0
2016-05-28T01:08:04.888Z,0
2016-05-28T01:09:04.828Z,0
2016-05-28T01:10:04.941Z,0
2016-05-28T01:11:04.801Z,0
2016-05-28T01:12:04.898Z,0
2016-05-28T01:13:05.057Z,0
2016-05-28T01:14:05.091Z,0
2016-05-28T01:15:05.000Z,0
2016-05-28T01:16:04.988Z,0
2016-05-28T01:17:05.099Z,0
2016-05-28T01:18:05.118Z,0
2016-05-28T01:19:04.839Z,0
2016-05-28T01:20:05.264Z,0
2016-05-28T01:21:05.204Z,0
2016-05-28T01:22:05.237Z,0
2016-05-28T01:23:05.240Z,0
2016-05-28T01:24:05.275Z,0
2016-05-28T01:25:05.136Z,0
2016-05-28T01:26:05.311Z,0
2016-05-28T01:27:05.344Z,0
2016-05-28T01:28:05.208Z,0
2016-05-28T01:29:05.382Z,0
2016-05-28T01:30:05.259Z,0
2016-05-28T01:31:05.278Z,0
2016-05-28T01:32:05.468Z,0
2016-05-28T01:33:05.471Z,0
2016-05-28T01:34:05.505Z,0
2016-05-28T01:35:05.257Z,0
2016-05-28T01:36:05.541Z,0
2016-05-28T01:37:05.575Z,0
2016-05-28T01:38:05.593Z,0
2016-05-28T01:39:05.627Z,0
2016-05-28T01:40:05.489Z,0
2016-05-28T01:41:05.680Z,0
2016-05-28T01:42:05.698Z,0
2016-05-28T01:43:05.716Z,0
2016-05-28T01:44:05.735Z,0
2016-05-28T01:45:05.768Z,0
2016-05-28T01:46:05.802Z,0
2016-05-28T01:47:05.805Z,0
2016-05-28T01:48:05.682Z,0
2016-05-28T01:49:05.889Z,0
2016-05-28T01:50:06.235Z,0
2016-05-28T01:51:05.909Z,0
2016-05-28T01:52:05.928Z,0
2016-05-28T01:53:05.961Z,0
2016-05-28T01:54:05.980Z,0
2016-05-28T01:55:06.014Z,0
2016-05-28T01:56:06.033Z,0
2016-05-28T01:57:05.895Z,0
2016-05-28T01:58:06.069Z,0
2016-05-28T01:59:06.103Z,0
2016-05-28T02:00:06.122Z,0
2016-05-28T02:01:05.983Z,0
2016-05-28T02:02:06.174Z,0
2016-05-28T02:03:06.191Z,0
2016-05-28T02:04:06.210Z,0
2016-05-28T02:05:06.103Z,0
2016-05-28T02:06:06.263Z,0
2016-05-28T02:07:06.297Z,0
2016-05-28T02:08:06.315Z,0
2016-05-28T02:09:06.161Z,0
2016-05-28T02:10:06.211Z,0
2016-05-28T02:11:06.261Z,0
2016-05-28T02:12:06.419Z,0
2016-05-28T02:13:06.437Z,0
2016-05-28T02:14:06.456Z,0
2016-05-28T02:15:06.334Z,0
2016-05-28T02:16:06.493Z,0
2016-05-28T02:17:06.385Z,0
2016-05-28T02:18:06.388Z,0
2016-05-28T02:19:06.422Z,0
2016-05-28T02:20:07.191Z,0
2016-05-28T02:21:06.615Z,0
2016-05-28T02:22:06.633Z,0
2016-05-28T02:23:06.684Z,0
2016-05-28T02:24:06.701Z,0
2016-05-28T02:25:06.720Z,0
2016-05-28T02:26:06.582Z,0
2016-05-28T02:27:06.600Z,0
2016-05-28T02:28:06.775Z,0
2016-05-28T02:29:06.809Z,0
2016-05-28T02:30:06.858Z,0
2016-05-28T02:31:06.845Z,0
2016-05-28T02:32:06.880Z,0
2016-05-28T02:33:06.913Z,0
2016-05-28T02:34:06.916Z,0
2016-05-28T02:35:07.308Z,0
2016-05-28T02:36:06.968Z,0
2016-05-28T02:37:07.003Z,0
2016-05-28T02:38:07.036Z,0
2016-05-28T02:39:07.039Z,0
2016-05-28T02:40:07.057Z,0
2016-05-28T02:41:07.091Z,0
2016-05-28T02:42:06.968Z,0
2016-05-28T02:43:07.144Z,0
2016-05-28T02:44:07.162Z,0
2016-05-28T02:45:06.867Z,0
2016-05-28T02:46:07.043Z,0
2016-05-28T02:47:07.232Z,0
2016-05-28T02:48:07.251Z,0
2016-05-28T02:49:07.128Z,0
2016-05-28T02:50:07.459Z,0
2016-05-28T02:51:07.321Z,0
2016-05-28T02:52:07.199Z,0
2016-05-28T02:53:07.218Z,0
2016-05-28T02:54:07.391Z,0
2016-05-28T02:55:07.269Z,0
2016-05-28T02:56:07.459Z,0
2016-05-28T02:57:07.462Z,0
2016-05-28T02:58:07.511Z,0
2016-05-28T02:59:07.202Z,0
2016-05-28T03:00:07.533Z,0
2016-05-28T03:01:07.238Z,0
2016-05-28T03:02:07.586Z,0
2016-05-28T03:03:07.619Z,0
2016-05-28T03:04:07.653Z,0
2016-05-28T03:05:07.374Z,0
2016-05-28T03:06:07.689Z,0
2016-05-28T03:07:07.691Z,0
2016-05-28T03:08:07.570Z,0
2016-05-28T03:09:07.604Z,0
2016-05-28T03:10:07.607Z,0
2016-05-28T03:11:07.641Z,0
2016-05-28T03:12:07.675Z,0
2016-05-28T03:13:07.677Z,0
2016-05-28T03:14:07.711Z,0
2016-05-28T03:15:07.916Z,0
2016-05-28T03:16:07.779Z,0
2016-05-28T03:17:07.781Z,0
2016-05-28T03:18:07.800Z,0
2016-05-28T03:19:07.818Z,0
2016-05-28T03:20:08.134Z,0
2016-05-28T03:21:08.042Z,0
2016-05-28T03:22:08.045Z,0
2016-05-28T03:23:07.923Z,0
2016-05-28T03:24:08.113Z,0
2016-05-28T03:25:08.131Z,0
2016-05-28T03:26:07.993Z,0
2016-05-28T03:27:08.183Z,0
2016-05-28T03:28:08.201Z,0
2016-05-28T03:29:08.064Z,0
2016-05-28T03:30:08.239Z,0
2016-05-28T03:31:08.272Z,0
2016-05-28T03:32:08.291Z,0
2016-05-28T03:33:08.309Z,0
2016-05-28T03:34:08.186Z,0
2016-05-28T03:35:08.674Z,0
2016-05-28T03:36:08.239Z,0
2016-05-28T03:37:08.397Z,0
2016-05-28T03:38:08.432Z,0
2016-05-28T03:39:08.465Z,0
2016-05-28T03:40:08.483Z,0
2016-05-28T03:41:08.519Z,0
2016-05-28T03:42:08.536Z,0
2016-05-28T03:43:08.429Z,0
2016-05-28T03:44:08.589Z,0
2016-05-28T03:45:08.607Z,0
2016-05-28T03:46:08.313Z,0
2016-05-28T03:47:08.643Z,0
2016-05-28T03:48:08.662Z,0
2016-05-28T03:49:08.540Z,0
2016-05-28T03:50:08.996Z,0
2016-05-28T03:51:08.763Z,0
2016-05-28T03:52:08.766Z,0
2016-05-28T03:53:08.848Z,0
2016-05-28T03:54:08.647Z,0
2016-05-28T03:55:08.821Z,0
2016-05-28T03:56:08.698Z,0
2016-05-28T03:57:08.733Z,0
2016-05-28T03:58:08.736Z,0
2016-05-28T03:59:08.784Z,0
2016-05-28T04:00:08.944Z,0
2016-05-28T04:01:08.962Z,0
2016-05-28T04:02:08.997Z,0
2016-05-28T04:03:09.031Z,0
2016-05-28T04:04:08.892Z,0
2016-05-28T04:05:09.317Z,0
2016-05-28T04:06:09.086Z,0
2016-05-28T04:07:09.119Z,0
2016-05-28T04:08:09.152Z,0
2016-05-28T04:09:09.172Z,0
2016-05-28T04:10:09.033Z,0
2016-05-28T04:11:09.224Z,0
2016-05-28T04:12:09.242Z,0
2016-05-28T04:13:09.260Z,0
2016-05-28T04:14:08.966Z,0
2016-05-28T04:15:09.313Z,5
2016-05-28T04:16:09.331Z,5
2016-05-28T04:17:09.349Z,5
2016-05-28T04:18:09.368Z,5
2016-05-28T04:19:09.386Z,5
2016-05-28T04:20:10.341Z,5
2016-05-28T04:21:09.454Z,5
2016-05-28T04:22:09.471Z,5
2016-05-28T04:23:09.521Z,5
2016-05-28T04:24:09.368Z,5
2016-05-28T04:25:09.543Z,5
2016-05-28T04:26:09.576Z,5
2016-05-28T04:27:09.595Z,10
2016-05-28T04:28:09.612Z,5
2016-05-28T04:29:09.475Z,5
2016-05-28T04:30:09.650Z,5
2016-05-28T04:31:09.683Z,5
2016-05-28T04:32:09.545Z,5
2016-05-28T04:33:09.751Z,5
2016-05-28T04:34:09.753Z,5
2016-05-28T04:35:10.210Z,5
2016-05-28T04:36:09.806Z,5
2016-05-28T04:37:09.825Z,5
2016-05-28T04:38:09.515Z,5
2016-05-28T04:39:09.861Z,5
2016-05-28T04:40:09.880Z,5
2016-05-28T04:41:09.914Z,5
2016-05-28T04:42:09.775Z,5
2016-05-28T04:43:09.950Z,5
2016-05-28T04:44:09.985Z,5
2016-05-28T04:45:10.003Z,5
2016-05-28T04:46:10.021Z,5
2016-05-28T04:47:10.055Z,5
2016-05-28T04:48:10.089Z,5
2016-05-28T04:49:10.107Z,5
2016-05-28T04:50:10.016Z,5
2016-05-28T04:51:10.144Z,5
2016-05-28T04:52:10.177Z,5
2016-05-28T04:53:10.212Z,5
2016-05-28T04:54:10.215Z,5
2016-05-28T04:55:10.248Z,5
2016-05-28T04:56:10.251Z,5
2016-05-28T04:57:10.284Z,5
2016-05-28T04:58:10.147Z,5
2016-05-28T04:59:10.181Z,5
2016-05-28T05:00:10.356Z,5
2016-05-28T05:01:10.373Z,10
2016-05-28T05:02:10.408Z,10
2016-05-28T05:03:10.426Z,10
2016-05-28T05:04:10.444Z,10
2016-05-28T05:05:11.244Z,10
2016-05-28T05:06:10.355Z,10
2016-05-28T05:07:10.530Z,10
2016-05-28T05:08:10.559Z,10
2016-05-28T05:09:10.617Z,10
2016-05-28T05:10:10.659Z,10
2016-05-28T05:11:10.561Z,10
2016-05-28T05:12:10.604Z,10
2016-05-28T05:13:10.782Z,10
2016-05-28T05:14:10.841Z,5
2016-05-28T05:15:10.868Z,5
2016-05-28T05:16:10.894Z,5
2016-05-28T05:17:11.000Z,5
2016-05-28T05:18:10.948Z,5
2016-05-28T05:19:10.984Z,5
2016-05-28T05:20:11.005Z,10
2016-05-28T05:21:10.887Z,10
2016-05-28T05:22:11.127Z,10
2016-05-28T05:23:11.115Z,10
2016-05-28T05:24:11.136Z,10
2016-05-28T05:25:11.186Z,10
2016-05-28T05:26:11.190Z,10
2016-05-28T05:27:11.022Z,10
2016-05-28T05:28:11.416Z,10
2016-05-28T05:29:11.247Z,10
2016-05-28T05:30:11.265Z,10
2016-05-28T05:31:11.285Z,15
2016-05-28T05:32:11.304Z,10
2016-05-28T05:33:11.338Z,10
2016-05-28T05:34:11.340Z,10
2016-05-28T05:35:11.061Z,10
2016-05-28T05:36:11.408Z,10
2016-05-28T05:37:11.426Z,10
2016-05-28T05:38:11.148Z,10
2016-05-28T05:39:11.478Z,15
2016-05-28T05:40:11.496Z,15
2016-05-28T05:41:11.515Z,15
2016-05-28T05:42:11.377Z,15
2016-05-28T05:43:11.801Z,10
2016-05-28T05:44:11.429Z,10
2016-05-28T05:45:11.714Z,10
2016-05-28T05:46:11.654Z,10
2016-05-28T05:47:11.750Z,10
2016-05-28T05:48:11.533Z,10
2016-05-28T05:49:11.553Z,15
2016-05-28T05:50:11.820Z,15
2016-05-28T05:51:11.761Z,15
2016-05-28T05:52:11.779Z,15
2016-05-28T05:53:11.641Z,20
2016-05-28T05:54:11.675Z,20
2016-05-28T05:55:11.771Z,20
2016-05-28T05:56:11.869Z,20
2016-05-28T05:57:11.839Z,20
2016-05-28T05:58:11.936Z,15
2016-05-28T05:59:11.955Z,15
2016-05-28T06:00:11.988Z,15
2016-05-28T06:01:11.835Z,15
2016-05-28T06:02:11.868Z,15
2016-05-28T06:03:11.888Z,15
2016-05-28T06:04:12.061Z,15
2016-05-28T06:05:12.346Z,10
2016-05-28T06:06:12.129Z,10
2016-05-28T06:07:12.006Z,10
2016-05-28T06:08:11.993Z,10
2016-05-28T06:09:12.060Z,10
2016-05-28T06:10:12.234Z,10
2016-05-28T06:11:12.236Z,10
2016-05-28T06:12:12.254Z,10
2016-05-28T06:13:12.289Z,10
2016-05-28T06:14:12.167Z,10
2016-05-28T06:15:12.340Z,10
2016-05-28T06:16:12.359Z,10
2016-05-28T06:17:12.393Z,10
2016-05-28T06:18:12.428Z,10
2016-05-28T06:19:12.289Z,10
2016-05-28T06:20:12.589Z,10
2016-05-28T06:21:12.342Z,10
2016-05-28T06:22:12.359Z,10
2016-05-28T06:23:12.644Z,10
2016-05-28T06:24:12.662Z,10
2016-05-28T06:25:12.539Z,10
2016-05-28T06:26:12.683Z,10
2016-05-28T06:27:12.733Z,10
2016-05-28T06:28:12.782Z,10
2016-05-28T06:29:12.769Z,10
2016-05-28T06:30:12.788Z,10
2016-05-28T06:31:12.618Z,10
2016-05-28T06:32:12.793Z,10
2016-05-28T06:33:12.796Z,10
2016-05-28T06:34:12.814Z,10
2016-05-28T06:35:13.348Z,10
2016-05-28T06:36:12.929Z,10
2016-05-28T06:37:12.946Z,10
2016-05-28T06:38:12.887Z,10
2016-05-28T06:39:13.077Z,10
2016-05-28T06:40:12.940Z,10
2016-05-28T06:41:12.832Z,10
2016-05-28T06:42:13.007Z,10
2016-05-28T06:43:13.026Z,15
2016-05-28T06:44:12.887Z,10
2016-05-28T06:45:12.906Z,10
2016-05-28T06:46:13.095Z,10
2016-05-28T06:47:13.131Z,10
2016-05-28T06:48:13.148Z,10
2016-05-28T06:49:13.167Z,10
2016-05-28T06:50:13.606Z,10
2016-05-28T06:51:13.234Z,10
2016-05-28T06:52:13.237Z,10
2016-05-28T06:53:13.099Z,10
2016-05-28T06:54:13.290Z,10
2016-05-28T06:55:13.339Z,10
2016-05-28T06:56:13.185Z,10
2016-05-28T06:57:13.204Z,10
2016-05-28T06:58:13.223Z,10
2016-05-28T06:59:13.256Z,10
2016-05-28T07:00:13.461Z,10
2016-05-28T07:01:13.293Z,10
2016-05-28T07:02:13.499Z,10
2016-05-28T07:03:13.360Z,10
2016-05-28T07:04:13.551Z,10
2016-05-28T07:05:13.257Z,10
2016-05-28T07:06:13.431Z,10
2016-05-28T07:07:13.605Z,10
2016-05-28T07:08:13.718Z,10
2016-05-28T07:09:13.674Z,10
2016-05-28T07:10:13.520Z,10
2016-05-28T07:11:13.679Z,10
2016-05-28T07:12:13.743Z,10
2016-05-28T07:13:13.871Z,10
2016-05-28T07:14:13.890Z,10
2016-05-28T07:15:13.892Z,10
2016-05-28T07:16:13.943Z,10
2016-05-28T07:17:13.789Z,10
2016-05-28T07:18:13.948Z,10
2016-05-28T07:19:13.794Z,10
2016-05-28T07:20:14.015Z,10
2016-05-28T07:21:13.861Z,10
2016-05-28T07:22:13.865Z,10
2016-05-28T07:23:14.023Z,10
2016-05-28T07:24:14.026Z,15
2016-05-28T07:25:14.076Z,15
2016-05-28T07:26:14.078Z,15
2016-05-28T07:27:14.097Z,15
2016-05-28T07:28:14.052Z,15
2016-05-28T07:29:14.150Z,15
2016-05-28T07:30:14.183Z,15
2016-05-28T07:31:14.216Z,15
2016-05-28T07:32:14.252Z,15
2016-05-28T07:33:13.973Z,15
2016-05-28T07:34:14.350Z,15
2016-05-28T07:35:14.946Z,15
2016-05-28T07:36:14.340Z,15
2016-05-28T07:37:14.436Z,15
2016-05-28T07:38:14.485Z,15
2016-05-28T07:39:14.410Z,15
2016-05-28T07:40:14.491Z,15
2016-05-28T07:41:14.447Z,20
2016-05-28T07:42:14.496Z,20
2016-05-28T07:43:14.562Z,20
2016-05-28T07:44:14.643Z,25
2016-05-28T07:45:14.411Z,25
2016-05-28T07:46:14.429Z,25
2016-05-28T07:47:14.697Z,25
2016-05-28T07:48:14.637Z,25
2016-05-28T07:49:14.593Z,25
2016-05-28T07:50:14.550Z,30
2016-05-28T07:51:14.786Z,35
2016-05-28T07:52:14.742Z,30
2016-05-28T07:53:14.745Z,30
2016-05-28T07:54:14.903Z,30
2016-05-28T07:55:14.813Z,25
2016-05-28T07:56:14.956Z,25
2016-05-28T07:57:14.819Z,25
2016-05-28T07:58:14.900Z,20
2016-05-28T07:59:14.917Z,20
2016-05-28T08:00:14.935Z,20
2016-05-28T08:01:15.080Z,25
2016-05-28T08:02:15.003Z,25
2016-05-28T08:03:15.116Z,30
2016-05-28T08:04:15.071Z,30
2016-05-28T08:05:15.183Z,30
2016-05-28T08:06:15.186Z,30
2016-05-28T08:07:15.079Z,25
2016-05-28T08:08:15.144Z,25
2016-05-28T08:09:15.194Z,20
2016-05-28T08:10:15.150Z,15
2016-05-28T08:11:15.246Z,15
2016-05-28T08:12:15.265Z,15
2016-05-28T08:13:15.283Z,15
2016-05-28T08:14:15.504Z,15
2016-05-28T08:15:15.351Z,15
2016-05-28T08:16:15.479Z,20
2016-05-28T08:17:15.434Z,20
2016-05-28T08:18:15.453Z,20
2016-05-28T08:19:15.440Z,20
2016-05-28T08:20:15.348Z,15
2016-05-28T08:21:15.509Z,20
2016-05-28T08:22:15.542Z,20
2016-05-28T08:23:15.403Z,15
2016-05-28T08:24:15.672Z,15
2016-05-28T08:25:15.300Z,20
2016-05-28T08:26:15.333Z,20
2016-05-28T08:27:15.696Z,15
2016-05-28T08:28:15.792Z,15
2016-05-28T08:29:17.326Z,15
2016-05-28T08:30:15.736Z,20
2016-05-28T08:31:15.769Z,15
2016-05-28T08:32:15.803Z,15
2016-05-28T08:33:15.821Z,15
2016-05-28T08:34:17.043Z,15
2016-05-28T08:35:16.171Z,10
2016-05-28T08:36:15.891Z,10
2016-05-28T08:37:16.176Z,15
2016-05-28T08:38:15.929Z,20
2016-05-28T08:39:15.697Z,20
2016-05-28T08:40:16.044Z,20
2016-05-28T08:41:16.155Z,15
2016-05-28T08:42:16.174Z,15
2016-05-28T08:43:16.098Z,20
2016-05-28T08:44:16.116Z,20
2016-05-28T08:45:16.260Z,20
2016-05-28T08:46:16.029Z,20
2016-05-28T08:47:16.296Z,20
2016-05-28T08:48:16.346Z,20
2016-05-28T08:49:17.052Z,15
2016-05-28T08:50:16.133Z,15
2016-05-28T08:51:16.323Z,15
2016-05-28T08:52:16.387Z,20
2016-05-28T08:53:16.376Z,20
2016-05-28T08:54:16.425Z,25
2016-05-28T08:55:16.271Z,25
2016-05-28T08:56:16.353Z,20
2016-05-28T08:57:16.605Z,20
2016-05-28T08:58:16.591Z,20
2016-05-28T08:59:16.391Z,20
2016-05-28T09:00:16.441Z,20
2016-05-28T09:01:16.506Z,20
2016-05-28T09:02:16.555Z,25
2016-05-28T09:03:16.668Z,25
2016-05-28T09:04:16.780Z,25
2016-05-28T09:05:16.798Z,25
2016-05-28T09:06:16.488Z,25
2016-05-28T09:07:16.850Z,25
2016-05-28T09:08:16.805Z,25
2016-05-28T09:09:16.871Z,25
2016-05-28T09:10:16.858Z,25
2016-05-28T09:11:16.924Z,25
2016-05-28T09:12:16.848Z,25
2016-05-28T09:13:17.038Z,25
2016-05-28T09:14:16.994Z,25
2016-05-28T09:15:16.997Z,25
2016-05-28T09:16:16.874Z,25
2016-05-28T09:17:17.049Z,25
2016-05-28T09:18:17.068Z,25
2016-05-28T09:19:17.054Z,25
2016-05-28T09:20:17.057Z,25
2016-05-28T09:21:17.215Z,25
2016-05-28T09:22:17.188Z,25
2016-05-28T09:23:17.190Z,25
2016-05-28T09:24:17.256Z,25
2016-05-28T09:25:17.399Z,25
2016-05-28T09:26:17.184Z,25
2016-05-28T09:27:17.357Z,25
2016-05-28T09:28:17.375Z,25
2016-05-28T09:29:17.597Z,25
2016-05-28T09:30:17.428Z,25
2016-05-28T09:31:17.462Z,30
2016-05-28T09:32:17.356Z,30
2016-05-28T09:33:17.529Z,30
2016-05-28T09:34:17.594Z,30
2016-05-28T09:35:17.160Z,30
2016-05-28T09:36:17.522Z,30
2016-05-28T09:37:17.665Z,30
2016-05-28T09:38:17.761Z,30
2016-05-28T09:39:17.780Z,30
2016-05-28T09:40:17.673Z,30
2016-05-28T09:41:17.739Z,30
2016-05-28T09:42:17.819Z,30
2016-05-28T09:43:17.822Z,30
2016-05-28T09:44:17.840Z,30
2016-05-28T09:45:17.890Z,30
2016-05-28T09:46:17.908Z,30
2016-05-28T09:47:17.771Z,30
2016-05-28T09:48:17.649Z,30
2016-05-28T09:49:17.979Z,30
2016-05-28T09:50:18.450Z,30
2016-05-28T09:51:18.125Z,30
2016-05-28T09:52:18.174Z,30
2016-05-28T09:53:17.958Z,30
2016-05-28T09:54:18.133Z,30
2016-05-28T09:55:18.011Z,30
2016-05-28T09:56:18.248Z,30
2016-05-28T09:57:18.250Z,30
2016-05-28T09:58:18.144Z,30
2016-05-28T09:59:18.147Z,30
2016-05-28T10:00:18.306Z,30
2016-05-28T10:01:18.339Z,35
2016-05-28T10:02:19.685Z,35
2016-05-28T10:03:18.407Z,35
2016-05-28T10:04:18.286Z,35
2016-05-28T10:05:18.850Z,35
2016-05-28T10:06:18.508Z,35
2016-05-28T10:07:19.497Z,35
2016-05-28T10:08:18.561Z,35
2016-05-28T10:09:18.689Z,35
2016-05-28T10:10:18.630Z,35
2016-05-28T10:11:18.742Z,35
2016-05-28T10:12:20.385Z,35
2016-05-28T10:13:18.809Z,35
2016-05-28T10:14:18.858Z,35
2016-05-28T10:15:18.721Z,35
2016-05-28T10:16:18.911Z,35
2016-05-28T10:17:21.883Z,35
2016-05-28T10:18:18.963Z,35
2016-05-28T10:19:18.872Z,35
2016-05-28T10:20:19.359Z,40
2016-05-28T10:21:19.065Z,40
2016-05-28T10:22:19.084Z,40
2016-05-28T10:23:19.055Z,40
2016-05-28T10:24:18.917Z,40
2016-05-28T10:25:18.887Z,40
2016-05-28T10:26:19.266Z,40
2016-05-28T10:27:19.206Z,40
2016-05-28T10:28:19.193Z,40
2016-05-28T10:29:19.273Z,40
2016-05-28T10:30:19.120Z,40
2016-05-28T10:31:19.483Z,45
2016-05-28T10:32:19.361Z,45
2016-05-28T10:33:19.441Z,45
2016-05-28T10:34:19.475Z,45
2016-05-28T10:35:20.197Z,50
2016-05-28T10:36:19.386Z,45
2016-05-28T10:37:19.545Z,45
2016-05-28T10:38:19.391Z,45
2016-05-28T10:39:19.550Z,45
2016-05-28T10:40:19.616Z,45
2016-05-28T10:41:19.822Z,45
2016-05-28T10:42:19.480Z,45
2016-05-28T10:43:19.686Z,45
2016-05-28T10:44:19.705Z,50
2016-05-28T10:45:19.582Z,55
2016-05-28T10:46:19.788Z,55
2016-05-28T10:47:19.651Z,55
2016-05-28T10:48:19.840Z,50
2016-05-28T10:49:19.921Z,55
2016-05-28T10:50:20.190Z,55
2016-05-28T10:51:19.865Z,50
2016-05-28T10:52:20.101Z,45
2016-05-28T10:53:19.995Z,55
2016-05-28T10:54:19.966Z,70
2016-05-28T10:55:20.344Z,65
2016-05-28T10:56:19.956Z,60
2016-05-28T10:57:20.037Z,55
2016-05-28T10:58:20.165Z,55
2016-05-28T10:59:20.042Z,55
2016-05-28T11:00:20.232Z,60
2016-05-28T11:01:20.313Z,70
2016-05-28T11:02:20.488Z,75
2016-05-28T11:03:20.381Z,70
2016-05-28T11:04:20.384Z,70
2016-05-28T11:05:20.449Z,60
2016-05-28T11:06:20.452Z,40
2016-05-28T11:07:20.455Z,40
2016-05-28T11:08:20.363Z,50
2016-05-28T11:09:20.538Z,55
2016-05-28T11:10:20.588Z,55
2016-05-28T11:11:20.683Z,55
2016-05-28T11:12:20.718Z,55
2016-05-28T11:13:20.392Z,55
2016-05-28T11:14:20.708Z,55
2016-05-28T11:15:20.757Z,55
2016-05-28T11:16:20.869Z,60
2016-05-28T11:17:20.935Z,60
2016-05-28T11:18:20.860Z,60
2016-05-28T11:19:20.799Z,60
2016-05-28T11:20:20.724Z,60
2016-05-28T11:21:20.774Z,60
2016-05-28T11:22:20.980Z,60
2016-05-28T11:23:20.684Z,60
2016-05-28T11:24:20.921Z,60
2016-05-28T11:25:21.065Z,65
2016-05-28T11:26:21.193Z,65
2016-05-28T11:27:21.164Z,65
2016-05-28T11:28:20.948Z,65
2016-05-28T11:29:21.217Z,65
2016-05-28T11:30:21.345Z,65
2016-05-28T11:31:21.347Z,65
2016-05-28T11:32:21.475Z,65
2016-05-28T11:33:21.212Z,60
2016-05-28T11:34:21.543Z,60
2016-05-28T11:35:21.842Z,60
2016-05-28T11:36:21.516Z,60
2016-05-28T11:37:21.488Z,60
2016-05-28T11:38:21.694Z,60
2016-05-28T11:39:21.572Z,60
2016-05-28T11:40:21.652Z,65
2016-05-28T11:41:21.734Z,65
2016-05-28T11:42:21.705Z,65
2016-05-28T11:43:21.754Z,65
2016-05-28T11:44:21.725Z,65
2016-05-28T11:45:21.885Z,65
2016-05-28T11:46:21.810Z,65
2016-05-28T11:47:21.984Z,70
2016-05-28T11:48:21.565Z,65
2016-05-28T11:49:22.035Z,90
2016-05-28T11:50:22.102Z,85
2016-05-28T11:51:21.994Z,70
2016-05-28T11:52:22.044Z,55
2016-05-28T11:53:21.921Z,45
2016-05-28T11:54:22.049Z,75
2016-05-28T11:55:22.334Z,70
2016-05-28T11:56:22.337Z,65
2016-05-28T11:57:22.292Z,65
2016-05-28T11:58:22.232Z,65
2016-05-28T11:59:22.125Z,70
2016-05-28T12:00:22.410Z,55
2016-05-28T12:01:22.350Z,75
2016-05-28T12:02:22.524Z,75
2016-05-28T12:03:22.214Z,60
2016-05-28T12:04:22.468Z,70
2016-05-28T12:05:22.736Z,80
2016-05-28T12:06:22.378Z,85
2016-05-28T12:07:22.398Z,80
2016-05-28T12:08:22.602Z,75
2016-05-28T12:09:22.637Z,60
2016-05-28T12:10:22.687Z,60
2016-05-28T12:11:22.705Z,55
2016-05-28T12:12:22.597Z,85
2016-05-28T12:13:22.945Z,95
2016-05-28T12:14:22.681Z,75
2016-05-28T12:15:22.888Z,75
2016-05-28T12:16:22.890Z,80
2016-05-28T12:17:22.924Z,85
2016-05-28T12:18:22.974Z,70
2016-05-28T12:19:23.008Z,60
2016-05-28T12:20:22.901Z,50
2016-05-28T12:21:23.216Z,70
2016-05-28T12:22:23.124Z,75
2016-05-28T12:23:23.018Z,75
2016-05-28T12:24:23.365Z,75
2016-05-28T12:25:23.211Z,75
2016-05-28T12:26:23.120Z,75
2016-05-28T12:27:23.295Z,75
2016-05-28T12:28:23.250Z,75
2016-05-28T12:29:23.597Z,75
2016-05-28T12:30:23.599Z,80
2016-05-28T12:31:23.601Z,75
2016-05-28T12:32:23.167Z,75
2016-05-28T12:33:23.623Z,75
2016-05-28T12:34:23.657Z,75
2016-05-28T12:35:23.894Z,50
2016-05-28T12:36:23.663Z,45
2016-05-28T12:37:23.822Z,45
2016-05-28T12:38:23.684Z,45
2016-05-28T12:39:23.765Z,45
2016-05-28T12:40:23.626Z,45
2016-05-28T12:41:23.817Z,45
2016-05-28T12:42:23.835Z,45
2016-05-28T12:43:23.978Z,70
2016-05-28T12:44:23.934Z,80
2016-05-28T12:45:23.968Z,80
2016-05-28T12:46:23.862Z,75
2016-05-28T12:47:24.036Z,80
2016-05-28T12:48:24.147Z,75
2016-05-28T12:49:24.291Z,45
2016-05-28T12:50:24.482Z,75
2016-05-28T12:51:24.359Z,70
2016-05-28T12:52:24.377Z,75
2016-05-28T12:53:24.177Z,80
2016-05-28T12:54:24.382Z,90
2016-05-28T12:55:24.338Z,95
2016-05-28T12:56:24.216Z,100
2016-05-28T12:57:24.296Z,95
2016-05-28T12:58:24.440Z,85
2016-05-28T12:59:24.475Z,80
2016-05-28T13:00:24.634Z,55
2016-05-28T13:01:24.636Z,45
2016-05-28T13:02:24.608Z,55
2016-05-28T13:03:24.688Z,55
2016-05-28T13:04:24.723Z,60
2016-05-28T13:05:24.803Z,65
2016-05-28T13:06:24.603Z,75
2016-05-28T13:07:24.699Z,80
2016-05-28T13:08:24.921Z,80
2016-05-28T13:09:24.658Z,80
2016-05-28T13:10:24.972Z,85
2016-05-28T13:11:24.772Z,80
2016-05-28T13:12:24.837Z,80
2016-05-28T13:13:25.028Z,80
2016-05-28T13:14:25.046Z,55
2016-05-28T13:15:25.002Z,80
2016-05-28T13:16:25.442Z,75
2016-05-28T13:17:25.288Z,85
2016-05-28T13:18:25.182Z,95
2016-05-28T13:19:25.309Z,95
2016-05-28T13:20:25.500Z,90
2016-05-28T13:21:25.346Z,85
2016-05-28T13:22:25.177Z,85
2016-05-28T13:23:25.258Z,65
2016-05-28T13:24:25.526Z,55
2016-05-28T13:25:25.544Z,80
2016-05-28T13:26:25.547Z,85
2016-05-28T13:27:25.284Z,85
2016-05-28T13:28:25.569Z,85
2016-05-28T13:29:25.727Z,85
2016-05-28T13:30:25.777Z,90
2016-05-28T13:31:25.638Z,95
2016-05-28T13:32:25.782Z,95
2016-05-28T13:33:25.785Z,90
2016-05-28T13:34:25.804Z,60
2016-05-28T13:35:25.665Z,55
2016-05-28T13:36:25.887Z,50
2016-05-28T13:37:25.921Z,45
2016-05-28T13:38:25.829Z,40
2016-05-28T13:39:26.020Z,35
2016-05-28T13:40:26.037Z,30
2016-05-28T13:41:26.165Z,30
2016-05-28T13:42:26.325Z,35
2016-05-28T13:43:26.343Z,40
2016-05-28T13:44:26.361Z,45
2016-05-28T13:45:26.348Z,40
2016-05-28T13:46:26.022Z,45
2016-05-28T13:47:26.494Z,45
2016-05-28T13:48:26.028Z,50
2016-05-28T13:49:26.702Z,60
2016-05-28T13:50:26.815Z,75
2016-05-28T13:51:26.380Z,80
2016-05-28T13:52:26.539Z,85
2016-05-28T13:53:26.541Z,75
2016-05-28T13:54:26.607Z,75
2016-05-28T13:55:26.610Z,75
2016-05-28T13:56:26.706Z,75
2016-05-28T13:57:26.724Z,75
2016-05-28T13:58:26.790Z,75
2016-05-28T13:59:26.838Z,75
2016-05-28T14:00:26.654Z,75
2016-05-28T14:01:26.860Z,75
2016-05-28T14:02:26.769Z,75
2016-05-28T14:03:26.959Z,75
2016-05-28T14:04:27.149Z,75
2016-05-28T14:05:27.684Z,45
2016-05-28T14:06:27.123Z,45
2016-05-28T14:07:27.251Z,45
2016-05-28T14:08:27.254Z,40
2016-05-28T14:09:27.101Z,40
2016-05-28T14:10:27.275Z,40
2016-05-28T14:11:27.292Z,80
2016-05-28T14:12:27.187Z,85
2016-05-28T14:13:27.220Z,85
2016-05-28T14:14:27.410Z,90
2016-05-28T14:15:27.436Z,80
2016-05-28T14:16:27.493Z,80
2016-05-28T14:17:27.473Z,80
2016-05-28T14:18:27.609Z,80
2016-05-28T14:19:27.657Z,80
2016-05-28T14:20:28.716Z,90
2016-05-28T14:21:27.759Z,90
2016-05-28T14:22:27.787Z,90
2016-05-28T14:23:27.876Z,90
2016-05-28T14:24:27.899Z,90
2016-05-28T14:25:27.951Z,85
2016-05-28T14:26:27.990Z,90